Time;durP1;ratioP1;P1;durP2;ratioP2;P2;SDS_P1;SDS_P2;PMS_P1;PMS_P2;Temp;Humidity;BMP_temperature;BMP_pressure;BME280_temperature;BME280_humidity;BME280_pressure;Samples;Min_cycle;Max_cycle;Signal;HPM_P1;HPM_P2
2021/10/28 00:13:59;;;;;;;7.33;6.50;;;12.10;1.00;;;;;;5147068;27;20447;-79
2021/10/28 00:16:28;;;;;;;8.40;6.60;;;12.10;1.00;;;;;;5147665;27;20527;-80
2021/10/28 00:19:01;;;;;;;6.63;5.93;;;12.00;1.00;;;;;;5144408;27;20477;-80
2021/10/28 00:21:30;;;;;;;18.17;13.80;;;12.00;1.00;;;;;;5131937;27;20440;-80
2021/10/28 00:24:00;;;;;;;12.73;8.10;;;11.90;1.00;;;;;;5134107;27;21294;-79
2021/10/28 00:26:28;;;;;;;9.80;8.10;;;11.80;1.00;;;;;;5138874;27;21214;-79
2021/10/28 00:28:59;;;;;;;8.90;8.10;;;11.70;1.00;;;;;;5143927;27;21549;-79
2021/10/28 00:31:26;;;;;;;7.87;7.07;;;11.60;1.00;;;;;;5131609;27;20474;-80
2021/10/28 00:33:53;;;;;;;7.03;6.30;;;11.60;1.00;;;;;;5145290;27;21707;-79
2021/10/28 00:36:21;;;;;;;7.53;6.73;;;11.50;1.00;;;;;;5158802;27;20454;-80
2021/10/28 00:38:49;;;;;;;8.27;7.47;;;11.40;1.00;;;;;;5171391;27;21420;-80
2021/10/28 00:41:16;;;;;;;7.43;6.73;;;11.30;1.00;;;;;;5137704;27;20463;-81
2021/10/28 00:43:47;;;;;;;8.47;7.60;;;11.30;1.00;;;;;;5146871;27;20443;-80
2021/10/28 00:46:15;;;;;;;7.37;6.67;;;11.30;1.00;;;;;;5147968;27;21204;-80
2021/10/28 00:48:41;;;;;;;7.40;6.70;;;11.20;1.00;;;;;;5153789;27;20471;-78
2021/10/28 00:51:08;;;;;;;7.00;6.40;;;11.20;1.00;;;;;;5147873;27;20412;-79
2021/10/28 00:53:37;;;;;;;7.70;6.93;;;11.10;1.00;;;;;;5145109;27;20455;-79
2021/10/28 00:56:05;;;;;;;8.37;7.57;;;11.10;1.00;;;;;;5148416;27;20773;-79
2021/10/28 00:58:33;;;;;;;7.60;6.97;;;11.10;1.00;;;;;;5149688;27;20539;-78
2021/10/28 01:01:00;;;;;;;8.80;7.90;;;11.00;1.00;;;;;;5150199;27;20449;-79
2021/10/28 01:03:27;;;;;;;8.27;7.43;;;11.00;1.00;;;;;;5148753;27;20443;-79
2021/10/28 01:05:55;;;;;;;9.93;9.03;;;11.00;1.00;;;;;;5152092;27;20415;-79
2021/10/28 01:08:22;;;;;;;8.40;7.70;;;10.90;1.00;;;;;;5151887;27;20466;-79
2021/10/28 01:10:51;;;;;;;8.87;7.07;;;10.90;1.00;;;;;;5145245;27;20448;-79
2021/10/28 01:13:20;;;;;;;8.67;7.70;;;10.80;1.00;;;;;;5141925;27;20455;-80
2021/10/28 01:15:47;;;;;;;8.67;7.87;;;10.80;1.00;;;;;;5150469;27;20448;-78
2021/10/28 01:18:16;;;;;;;8.53;7.73;;;10.80;1.00;;;;;;5146172;27;20474;-79
2021/10/28 01:20:46;;;;;;;8.33;7.53;;;10.70;1.00;;;;;;5131970;27;20454;-79
2021/10/28 01:23:13;;;;;;;9.37;8.47;;;10.70;1.00;;;;;;5147145;27;20462;-79
2021/10/28 01:25:40;;;;;;;8.33;7.53;;;10.70;1.00;;;;;;5144687;27;20472;-79
2021/10/28 01:28:07;;;;;;;9.30;8.40;;;10.70;1.00;;;;;;5147426;27;20476;-80
2021/10/28 01:30:35;;;;;;;8.23;7.47;;;10.60;1.00;;;;;;5144470;27;20438;-79
2021/10/28 01:33:01;;;;;;;8.27;7.43;;;10.60;1.00;;;;;;5135331;27;20444;-78
2021/10/28 01:35:28;;;;;;;8.77;7.87;;;10.60;1.00;;;;;;5178694;27;20400;-79
2021/10/28 01:37:56;;;;;;;8.67;7.93;;;10.60;1.00;;;;;;5146921;27;20455;-79
2021/10/28 01:40:23;;;;;;;8.87;7.97;;;10.50;1.00;;;;;;5143063;27;20410;-80
2021/10/28 01:42:51;;;;;;;8.90;8.00;;;10.50;1.00;;;;;;5146325;27;20455;-79
2021/10/28 01:45:18;;;;;;;9.67;8.80;;;10.50;1.00;;;;;;5145008;27;20488;-78
2021/10/28 01:47:45;;;;;;;9.63;8.73;;;10.50;1.00;;;;;;5146502;27;20509;-79
2021/10/28 01:50:12;;;;;;;9.40;8.30;;;10.50;1.00;;;;;;5145958;27;20459;-80
2021/10/28 01:52:40;;;;;;;10.40;9.40;;;10.50;1.00;;;;;;5172365;27;20395;-80
2021/10/28 01:55:10;;;;;;;10.30;8.50;;;10.40;1.00;;;;;;5178733;27;20990;-78
2021/10/28 01:57:38;;;;;;;9.25;8.25;;;10.40;1.00;;;;;;5175102;27;20431;-79
2021/10/28 02:00:05;;;;;;;9.63;7.70;;;10.40;1.00;;;;;;5174574;27;20337;-81
2021/10/28 02:02:32;;;;;;;10.13;9.13;;;10.40;1.00;;;;;;5160829;27;20444;-79
2021/10/28 02:04:58;;;;;;;9.00;8.20;;;10.40;1.00;;;;;;5174185;27;20400;-80
2021/10/28 02:07:25;;;;;;;8.90;8.10;;;10.30;1.00;;;;;;5171874;27;20478;-80
2021/10/28 02:09:55;;;;;;;9.70;7.93;;;10.30;1.00;;;;;;5150170;27;20886;-79
2021/10/28 02:12:24;;;;;;;9.70;8.07;;;10.20;1.00;;;;;;5144413;27;20448;-79
2021/10/28 02:14:51;;;;;;;10.30;9.30;;;10.30;1.00;;;;;;5145340;27;20405;-80
2021/10/28 02:17:18;;;;;;;10.05;9.15;;;10.20;1.00;;;;;;5143217;27;20463;-79
2021/10/28 02:19:44;;;;;;;10.40;9.47;;;10.10;1.00;;;;;;5143298;27;20218;-79
2021/10/28 02:22:12;;;;;;;10.20;9.30;;;10.10;1.00;;;;;;5144227;27;20437;-79
2021/10/28 02:24:41;;;;;;;10.37;9.37;;;10.10;1.00;;;;;;5141095;27;20468;-79
2021/10/28 02:27:08;;;;;;;10.60;9.50;;;10.00;1.00;;;;;;5144938;27;20495;-79
2021/10/28 02:29:36;;;;;;;10.70;8.83;;;10.00;1.00;;;;;;5121317;27;20482;-78
2021/10/28 02:32:04;;;;;;;12.97;10.33;;;10.00;1.00;;;;;;5121159;27;20527;-79
2021/10/28 02:34:31;;;;;;;11.30;10.30;;;9.90;1.00;;;;;;5131677;27;21066;-78
2021/10/28 02:36:57;;;;;;;13.10;11.80;;;9.90;1.00;;;;;;5136616;27;20455;-79
2021/10/28 02:39:24;;;;;;;11.88;10.68;;;9.80;1.00;;;;;;5142504;27;20440;-79
2021/10/28 02:41:51;;;;;;;13.38;12.07;;;9.80;1.00;;;;;;5146128;27;20218;-80
2021/10/28 02:44:21;;;;;;;11.77;10.60;;;9.80;1.00;;;;;;5141792;27;20225;-80
2021/10/28 02:46:49;;;;;;;11.95;10.75;;;9.80;1.00;;;;;;5146696;27;20490;-79
2021/10/28 02:49:21;;;;;;;14.40;12.20;;;9.80;1.00;;;;;;5145714;27;20925;-79
2021/10/28 02:51:49;;;;;;;13.03;11.23;;;9.70;1.00;;;;;;5146077;27;20946;-79
2021/10/28 02:54:17;;;;;;;12.18;11.05;;;9.70;1.00;;;;;;5141963;27;21333;-79
2021/10/28 02:56:44;;;;;;;12.93;11.63;;;9.70;1.00;;;;;;5145917;27;20244;-78
2021/10/28 02:59:14;;;;;;;12.50;11.20;;;9.60;1.00;;;;;;5140486;27;20228;-79
2021/10/28 03:01:47;;;;;;;13.23;11.93;;;9.60;1.00;;;;;;5171430;27;21403;-81
2021/10/28 03:04:16;;;;;;;14.70;11.90;;;9.50;1.00;;;;;;5142756;27;20250;-80
2021/10/28 03:06:44;;;;;;;13.70;12.30;;;9.50;1.00;;;;;;5145090;27;20471;-80
2021/10/28 03:09:13;;;;;;;13.83;11.67;;;9.50;1.00;;;;;;5144715;27;21240;-79
2021/10/28 03:11:43;;;;;;;13.73;12.38;;;9.40;1.00;;;;;;5146510;27;20440;-80
2021/10/28 03:14:12;;;;;;;13.43;11.40;;;9.40;1.00;;;;;;5141132;27;20210;-79
2021/10/28 03:16:50;;;;;;;13.40;12.03;;;9.40;1.00;;;;;;5146799;27;20235;-79
2021/10/28 03:19:31;;;;;;;14.15;11.65;;;9.40;1.00;;;;;;5144547;27;20532;-81
2021/10/28 03:27:29;;;;;;;15.00;13.40;;;9.30;1.00;;;;;;5147041;27;20459;-79
2021/10/28 03:29:56;;;;;;;14.85;13.23;;;9.30;1.00;;;;;;5142530;27;20277;-79
2021/10/28 03:32:23;;;;;;;15.18;13.50;;;9.20;1.00;;;;;;5144177;27;20591;-79
2021/10/28 03:34:52;;;;;;;14.03;12.57;;;9.20;1.00;;;;;;5142354;27;20699;-80
2021/10/28 03:37:22;;;;;;;14.90;13.40;;;9.20;1.00;;;;;;5144679;27;20467;-79
2021/10/28 03:45:53;;;;;;;17.48;13.20;;;9.10;1.00;;;;;;5149688;27;20232;-78
2021/10/28 04:00:19;;;;;;;16.77;14.90;;;8.90;1.00;;;;;;5125350;27;20228;-79
2021/10/28 04:06:00;;;;;;;15.90;14.18;;;8.90;1.00;;;;;;5107401;27;21072;-81
2021/10/28 04:17:17;;;;;;;16.73;14.68;;;8.80;1.00;;;;;;5109342;27;20819;-79
2021/10/28 04:20:13;;;;;;;17.20;14.82;;;8.70;1.00;;;;;;5114744;27;20225;-80
2021/10/28 04:31:17;;;;;;;18.80;14.55;;;8.60;1.00;;;;;;5113114;27;20225;-82
2021/10/28 04:33:44;;;;;;;19.60;15.25;;;8.60;1.00;;;;;;5113390;27;20651;-79
2021/10/28 04:36:12;;;;;;;18.05;15.45;;;8.60;1.00;;;;;;5106410;27;20372;-78
2021/10/28 04:38:38;;;;;;;16.77;14.90;;;8.60;1.00;;;;;;5110551;27;20281;-78
2021/10/28 04:41:05;;;;;;;17.83;14.50;;;8.60;1.00;;;;;;5099188;27;20707;-79
2021/10/28 04:43:34;;;;;;;17.30;14.85;;;8.60;1.00;;;;;;5114171;27;20224;-79
2021/10/28 04:46:10;;;;;;;17.65;14.43;;;8.60;1.00;;;;;;5114737;27;20296;-80
2021/10/28 04:48:39;;;;;;;17.75;14.82;;;8.60;1.00;;;;;;5129285;27;20907;-79
2021/10/28 04:58:06;;;;;;;15.93;14.23;;;8.50;1.00;;;;;;5072422;27;20294;-79
2021/10/28 05:04:17;;;;;;;19.13;16.20;;;8.60;1.00;;;;;;5104002;27;20219;-80
2021/10/28 05:07:50;;;;;;;18.80;15.97;;;8.60;1.00;;;;;;5096992;27;20479;-80
2021/10/28 05:16:58;;;;;;;18.73;14.57;;;8.50;1.00;;;;;;5093662;27;20308;-79
2021/10/28 05:19:31;;;;;;;20.13;17.10;;;8.40;1.00;;;;;;5091129;27;20827;-79
2021/10/28 05:22:09;;;;;;;17.45;15.55;;;8.40;1.00;;;;;;5091334;27;20281;-79
2021/10/28 05:25:03;;;;;;;17.83;15.93;;;8.40;1.00;;;;;;5089113;27;20750;-78
2021/10/28 05:27:52;;;;;;;21.05;16.40;;;8.40;1.00;;;;;;5093470;27;20302;-79
2021/10/28 05:44:11;;;;;;;23.38;17.17;;;8.30;1.00;;;;;;4883302;28;20325;-76
2021/10/28 05:46:39;;;;;;;23.90;17.63;;;8.40;1.00;;;;;;5032996;28;20291;-76
2021/10/28 05:49:06;;;;;;;21.73;17.73;;;8.40;1.00;;;;;;5081222;27;20450;-74
2021/10/28 05:51:35;;;;;;;20.33;16.65;;;8.40;1.00;;;;;;5086148;27;20233;-77
2021/10/28 05:54:02;;;;;;;24.10;18.50;;;8.40;1.00;;;;;;5096142;27;20223;-78
2021/10/28 05:56:29;;;;;;;21.53;17.50;;;8.40;1.00;;;;;;5089846;27;22373;-78
2021/10/28 05:58:56;;;;;;;19.10;16.77;;;8.40;1.00;;;;;;5090553;27;20411;-77
2021/10/28 06:01:24;;;;;;;19.17;16.55;;;8.40;1.00;;;;;;5097111;27;20312;-78
2021/10/28 06:03:51;;;;;;;22.95;16.20;;;8.30;1.00;;;;;;5092725;27;20225;-78
2021/10/28 06:06:18;;;;;;;20.45;16.23;;;8.30;1.00;;;;;;5094395;27;20720;-78
2021/10/28 06:08:44;;;;;;;18.80;15.88;;;8.30;1.00;;;;;;5094242;27;20220;-78
2021/10/28 06:11:11;;;;;;;22.02;17.50;;;8.30;1.00;;;;;;5094413;27;20746;-77
2021/10/28 06:13:43;;;;;;;26.52;19.50;;;8.30;1.00;;;;;;5097501;27;20232;-76
2021/10/28 06:16:11;;;;;;;23.60;17.95;;;8.20;1.00;;;;;;5095301;27;20317;-78
2021/10/28 06:18:41;;;;;;;21.27;15.95;;;8.20;1.00;;;;;;5093916;27;20242;-79
2021/10/28 06:21:09;;;;;;;19.30;16.42;;;8.20;1.00;;;;;;5103759;27;20228;-78
2021/10/28 06:23:36;;;;;;;22.60;15.70;;;8.20;1.00;;;;;;5094371;27;20283;-78
2021/10/28 06:26:03;;;;;;;20.20;16.90;;;8.10;1.00;;;;;;5096942;27;20232;-77
2021/10/28 06:28:30;;;;;;;19.55;15.68;;;8.10;1.00;;;;;;5095477;27;20285;-78
2021/10/28 06:30:57;;;;;;;21.67;17.45;;;8.10;1.00;;;;;;5094020;27;20354;-79
2021/10/28 06:33:25;;;;;;;21.98;17.20;;;8.10;1.00;;;;;;5093731;27;20771;-78
2021/10/28 06:35:54;;;;;;;28.48;20.00;;;8.10;1.00;;;;;;5089847;27;20216;-78
2021/10/28 06:38:23;;;;;;;26.00;16.98;;;8.10;1.00;;;;;;5087402;27;20260;-79
2021/10/28 06:40:53;;;;;;;32.83;18.35;;;8.10;1.00;;;;;;5097932;27;20216;-79
2021/10/28 06:43:23;;;;;;;26.60;18.10;;;8.10;1.00;;;;;;5100588;27;20212;-79
2021/10/28 06:45:58;;;;;;;26.05;17.55;;;8.20;1.00;;;;;;5106885;27;20240;-78
2021/10/28 06:48:36;;;;;;;20.25;15.80;;;8.30;1.00;;;;;;5119434;27;20223;-78
2021/10/28 06:51:08;;;;;;;23.25;16.75;;;8.30;1.00;;;;;;5093818;27;20216;-79
2021/10/28 06:53:55;;;;;;;21.13;16.20;;;8.30;1.00;;;;;;5092138;27;20226;-78
2021/10/28 06:56:52;;;;;;;21.30;16.40;;;8.30;1.00;;;;;;5095700;27;20224;-78
2021/10/28 07:02:33;;;;;;;23.38;16.60;;;8.30;1.00;;;;;;5085831;27;20232;-78
2021/10/28 07:05:10;;;;;;;27.50;18.85;;;8.30;1.00;;;;;;5094613;27;20239;-77
2021/10/28 07:07:55;;;;;;;23.73;19.40;;;8.30;1.00;;;;;;5099691;27;20321;-78
2021/10/28 07:10:30;;;;;;;19.90;17.15;;;8.30;1.00;;;;;;5098739;27;21576;-78
2021/10/28 07:13:23;;;;;;;26.65;17.90;;;8.40;1.00;;;;;;5091196;27;20609;-77
2021/10/28 07:18:43;;;;;;;21.80;18.70;;;8.50;1.00;;;;;;5092241;27;20377;-78
2021/10/28 07:21:30;;;;;;;21.88;18.25;;;8.60;1.00;;;;;;5089035;27;20484;-78
2021/10/28 07:27:19;;;;;;;23.48;18.48;;;8.70;1.00;;;;;;5093700;27;20230;-79
2021/10/28 07:57:56;;;;;;;20.38;16.73;;;9.80;1.00;;;;;;5046959;27;20247;-78
2021/10/28 08:14:24;;;;;;;19.77;16.40;;;10.40;1.00;;;;;;5114803;27;20472;-77
2021/10/28 08:17:07;;;;;;;17.40;15.40;;;10.80;1.00;;;;;;5121320;27;20447;-79
2021/10/28 08:19:42;;;;;;;16.73;14.93;;;11.30;1.00;;;;;;5121181;27;20442;-78
2021/10/28 08:22:15;;;;;;;18.10;15.57;;;11.40;1.00;;;;;;5122616;27;20413;-79
2021/10/28 08:30:14;;;;;;;20.07;15.17;;;11.20;1.00;;;;;;5089149;27;20535;-79
2021/10/28 08:32:42;;;;;;;17.67;15.77;;;11.20;1.00;;;;;;5090288;27;20464;-79
2021/10/28 08:35:10;;;;;;;17.30;15.50;;;11.30;1.00;;;;;;5094065;27;20966;-80
2021/10/28 08:37:41;;;;;;;17.07;15.33;;;11.40;1.00;;;;;;5090397;27;21274;-79
2021/10/28 08:40:10;;;;;;;17.20;14.47;;;11.50;1.00;;;;;;5092410;27;20481;-79
2021/10/28 08:42:38;;;;;;;17.67;14.77;;;11.50;1.00;;;;;;5096721;27;20449;-78
2021/10/28 08:45:11;;;;;;;16.97;13.90;;;11.50;1.00;;;;;;5108048;27;20429;-78
2021/10/28 08:47:45;;;;;;;14.50;12.90;;;11.50;1.00;;;;;;5098785;27;20497;-78
2021/10/28 08:50:14;;;;;;;15.80;14.20;;;11.50;1.00;;;;;;5104719;27;20465;-78
2021/10/28 08:55:50;;;;;;;15.33;13.10;;;11.60;1.00;;;;;;5139017;27;20549;-78
2021/10/28 09:23:56;;;;;;;16.73;13.73;;;13.60;1.00;;;;;;5126097;27;21754;-78
2021/10/28 09:26:27;;;;;;;17.50;14.30;;;13.50;1.00;;;;;;5119770;27;20441;-77
2021/10/28 09:29:11;;;;;;;18.33;14.00;;;13.40;1.00;;;;;;5124406;27;20461;-77
2021/10/28 09:31:41;;;;;;;16.97;13.70;;;13.30;1.00;;;;;;5120992;27;21477;-80
2021/10/28 09:34:24;;;;;;;14.43;12.93;;;13.30;1.00;;;;;;5125125;27;20440;-78
2021/10/28 09:45:33;;;;;;;19.77;15.17;;;13.40;1.00;;;;;;5123103;27;21393;-78
2021/10/28 09:48:06;;;;;;;14.20;12.27;;;13.50;1.00;;;;;;5125211;27;20461;-79
2021/10/28 09:50:52;;;;;;;15.50;12.90;;;13.50;1.00;;;;;;5120103;27;21919;-79
2021/10/28 09:53:28;;;;;;;14.87;12.70;;;13.50;1.00;;;;;;5127445;27;20425;-78
2021/10/28 09:58:40;;;;;;;14.90;12.30;;;13.70;1.00;;;;;;5123441;27;20448;-78
2021/10/28 10:01:28;;;;;;;14.30;12.73;;;13.80;1.00;;;;;;5127601;27;20452;-78
2021/10/28 10:03:58;;;;;;;13.50;11.53;;;13.90;1.00;;;;;;5132441;27;21737;-77
2021/10/28 10:06:26;;;;;;;14.13;12.60;;;14.00;1.00;;;;;;5113733;27;20523;-78
2021/10/28 10:08:55;;;;;;;14.43;11.80;;;14.00;1.00;;;;;;5110664;27;20452;-78
2021/10/28 10:11:24;;;;;;;13.20;11.97;;;14.10;1.00;;;;;;5109092;27;20600;-78
2021/10/28 10:13:53;;;;;;;12.77;11.47;;;14.20;1.00;;;;;;5114366;27;20485;-78
2021/10/28 10:16:21;;;;;;;16.70;12.43;;;14.30;1.00;;;;;;5096201;27;21062;-78
2021/10/28 10:18:49;;;;;;;12.60;11.40;;;14.50;1.00;;;;;;5113422;27;20483;-78
2021/10/28 10:21:28;;;;;;;14.13;12.03;;;14.60;1.00;;;;;;5107954;27;21007;-77
2021/10/28 10:24:09;;;;;;;11.67;10.47;;;14.70;1.00;;;;;;5103809;27;20446;-77
2021/10/28 11:23:20;;;;;;;10.20;9.20;;;18.60;1.00;;;;;;5051733;27;20479;-77
2021/10/28 12:16:35;;;;;;;10.23;8.63;;;31.70;1.00;;;;;;5115760;27;20604;-79
2021/10/28 12:44:40;;;;;;;11.50;8.27;;;26.00;1.00;;;;;;5101953;27;20461;-80
2021/10/28 12:50:27;;;;;;;9.23;8.00;;;24.30;1.00;;;;;;5098968;27;20477;-78
2021/10/28 12:53:09;;;;;;;9.20;8.40;;;24.50;1.00;;;;;;5137268;27;20394;-79
2021/10/28 13:04:09;;;;;;;7.20;6.50;;;23.40;1.00;;;;;;5111278;27;20480;-80
2021/10/28 13:06:48;;;;;;;8.17;7.47;;;25.00;1.00;;;;;;5108021;27;20929;-81
2021/10/28 13:34:55;;;;;;;9.40;7.17;;;20.00;1.00;;;;;;5117226;27;20494;-80
2021/10/28 13:48:21;;;;;;;6.73;5.87;;;18.00;1.00;;;;;;5119675;27;20437;-81
2021/10/28 13:54:04;;;;;;;7.30;6.00;;;17.60;1.00;;;;;;5112060;27;20594;-80
2021/10/28 13:56:47;;;;;;;6.70;6.00;;;17.60;1.00;;;;;;5111209;27;21003;-80
2021/10/28 14:19:25;;;;;;;8.43;6.80;;;16.90;1.00;;;;;;5122819;27;20452;-81
2021/10/28 14:22:13;;;;;;;6.27;5.67;;;16.90;1.00;;;;;;5117389;27;20446;-79
2021/10/28 14:39:19;;;;;;;10.50;6.80;;;16.90;1.00;;;;;;5147237;27;20587;-81
2021/10/28 15:28:34;;;;;;;9.13;7.53;;;15.80;1.00;;;;;;5153439;27;21340;-80
2021/10/28 15:34:13;;;;;;;8.20;7.30;;;15.60;1.00;;;;;;5104533;27;21119;-80
2021/10/28 15:36:45;;;;;;;8.33;7.53;;;15.50;1.00;;;;;;5160413;27;20433;-81
2021/10/28 15:39:24;;;;;;;9.70;8.33;;;15.50;1.00;;;;;;5155298;27;21673;-80
2021/10/28 15:53:39;;;;;;;13.27;11.07;;;15.00;1.00;;;;;;5116952;27;20219;-80
2021/10/28 15:56:27;;;;;;;12.73;10.30;;;14.90;1.00;;;;;;5103855;27;20443;-80
2021/10/28 15:59:27;;;;;;;13.03;10.07;;;14.80;1.00;;;;;;5088381;27;20451;-81
2021/10/28 16:23:53;;;;;;;13.60;11.60;;;14.10;1.00;;;;;;5081625;27;20462;-79
2021/10/28 16:26:20;;;;;;;14.80;12.90;;;14.00;1.00;;;;;;5088910;27;21327;-81
2021/10/28 16:28:47;;;;;;;13.27;12.03;;;14.00;1.00;;;;;;5093042;27;20481;-79
2021/10/28 16:31:15;;;;;;;20.77;13.70;;;13.90;1.00;;;;;;5091379;27;20502;-79
2021/10/28 16:33:42;;;;;;;13.97;11.87;;;13.80;1.00;;;;;;5092582;27;20554;-82
2021/10/28 16:36:10;;;;;;;16.93;15.13;;;13.80;1.00;;;;;;5085247;27;20418;-81
2021/10/28 16:38:41;;;;;;;14.33;12.83;;;13.70;1.00;;;;;;5096327;27;20477;-82
2021/10/28 16:41:13;;;;;;;14.30;11.93;;;13.60;1.00;;;;;;5073361;27;20443;-82
2021/10/28 16:43:42;;;;;;;13.60;12.30;;;13.60;1.00;;;;;;5083595;27;20458;-81
2021/10/28 16:46:09;;;;;;;14.13;12.73;;;13.60;1.00;;;;;;5086105;27;20448;-80
2021/10/28 16:48:36;;;;;;;15.23;13.70;;;13.50;1.00;;;;;;5102499;27;20491;-81
2021/10/28 16:51:03;;;;;;;13.67;12.37;;;13.50;1.00;;;;;;5091338;27;20440;-81
2021/10/28 16:53:30;;;;;;;15.23;13.63;;;13.50;1.00;;;;;;5076258;27;21273;-79
2021/10/28 16:55:57;;;;;;;16.50;13.13;;;13.40;1.00;;;;;;5084450;27;20451;-78
2021/10/28 16:58:25;;;;;;;18.77;13.80;;;13.40;1.00;;;;;;5076263;27;20891;-80
2021/10/28 17:00:53;;;;;;;12.87;11.67;;;13.30;1.00;;;;;;5081761;27;20458;-81
2021/10/28 17:03:24;;;;;;;14.20;12.80;;;13.30;1.00;;;;;;5058225;28;20416;-81
2021/10/28 17:06:11;;;;;;;14.30;12.93;;;13.20;1.00;;;;;;5077390;28;21029;-82
2021/10/28 17:08:38;;;;;;;15.43;13.93;;;13.20;1.00;;;;;;5072102;28;20506;-82
2021/10/28 17:11:06;;;;;;;14.83;13.30;;;13.20;1.00;;;;;;5076912;28;20454;-81
2021/10/28 17:13:36;;;;;;;15.20;13.70;;;13.20;1.00;;;;;;5074011;28;20452;-81
2021/10/28 17:16:05;;;;;;;16.03;14.37;;;13.20;1.00;;;;;;5069547;28;20529;-81
2021/10/28 17:18:32;;;;;;;13.40;12.00;;;13.20;1.00;;;;;;5074794;28;20676;-81
2021/10/28 17:21:03;;;;;;;14.07;12.57;;;13.20;1.00;;;;;;5087160;28;20448;-83
2021/10/28 17:23:34;;;;;;;14.67;13.27;;;13.10;1.00;;;;;;5077450;28;20439;-81
2021/10/28 17:26:05;;;;;;;14.60;13.03;;;13.00;1.00;;;;;;5108746;28;20430;-81
2021/10/28 17:28:37;;;;;;;16.57;14.00;;;13.00;1.00;;;;;;5083809;28;20459;-80
2021/10/28 17:31:27;;;;;;;16.20;13.23;;;13.00;1.00;;;;;;5075740;28;20426;-84
2021/10/28 17:33:56;;;;;;;14.07;12.57;;;12.90;1.00;;;;;;5063919;28;20446;-79
2021/10/28 17:36:27;;;;;;;14.97;13.47;;;12.90;1.00;;;;;;5038762;28;20444;-79
2021/10/28 17:38:54;;;;;;;13.83;12.23;;;12.80;1.00;;;;;;5058653;28;21244;-79
2021/10/28 17:41:21;;;;;;;14.07;12.63;;;12.80;1.00;;;;;;5057914;28;20468;-79
2021/10/28 17:43:52;;;;;;;15.17;13.57;;;12.70;1.00;;;;;;5054910;28;20449;-80
2021/10/28 17:46:19;;;;;;;13.73;12.37;;;12.70;1.00;;;;;;5063302;28;20636;-79
2021/10/28 17:48:48;;;;;;;13.50;12.10;;;12.60;1.00;;;;;;5059589;28;20978;-80
2021/10/28 17:51:15;;;;;;;14.00;12.60;;;12.60;1.00;;;;;;5053846;28;20452;-79
2021/10/28 17:53:44;;;;;;;14.17;12.87;;;12.50;1.00;;;;;;5055576;28;20461;-81
2021/10/28 17:56:12;;;;;;;14.73;13.33;;;12.40;1.00;;;;;;5044293;28;21261;-80
2021/10/28 17:58:38;;;;;;;15.67;13.93;;;12.20;1.00;;;;;;5062998;28;20407;-81
2021/10/28 18:01:07;;;;;;;14.70;13.30;;;12.10;1.00;;;;;;5059463;28;21083;-82
2021/10/28 18:03:35;;;;;;;15.53;13.90;;;12.00;1.00;;;;;;5064408;28;20456;-81
2021/10/28 18:06:02;;;;;;;15.70;13.20;;;11.90;1.00;;;;;;5063259;28;21220;-82
2021/10/28 18:08:31;;;;;;;15.70;14.10;;;11.90;1.00;;;;;;5061899;28;20883;-82
2021/10/28 18:10:58;;;;;;;17.30;14.07;;;11.80;1.00;;;;;;5066969;28;20426;-82
2021/10/28 18:13:27;;;;;;;14.93;13.50;;;11.70;1.00;;;;;;5061946;28;20774;-81
2021/10/28 18:15:53;;;;;;;15.83;14.10;;;11.70;1.00;;;;;;5059673;28;20467;-83
2021/10/28 18:18:25;;;;;;;15.57;14.10;;;11.60;1.00;;;;;;5074914;28;20466;-81
2021/10/28 18:20:52;;;;;;;16.10;14.37;;;11.60;1.00;;;;;;5066553;28;20427;-81
2021/10/28 18:23:19;;;;;;;13.83;12.43;;;11.50;1.00;;;;;;5071399;28;20453;-84
2021/10/28 18:25:48;;;;;;;16.53;14.00;;;11.50;1.00;;;;;;5078422;28;20448;-82
2021/10/28 18:28:15;;;;;;;14.03;12.73;;;11.40;1.00;;;;;;5083769;28;21355;-83
2021/10/28 18:30:47;;;;;;;13.67;12.27;;;11.30;1.00;;;;;;5082844;28;21149;-83
2021/10/28 18:33:23;;;;;;;13.90;12.60;;;11.30;1.00;;;;;;5096756;28;20458;-84
2021/10/28 18:36:09;;;;;;;14.50;13.00;;;11.20;1.00;;;;;;5076109;28;20444;-84
2021/10/28 18:42:34;;;;;;;13.07;11.77;;;11.20;1.00;;;;;;5072800;28;20458;-84
2021/10/28 18:45:25;;;;;;;12.37;11.33;;;11.10;1.00;;;;;;5054333;28;20529;-82
2021/10/28 18:48:19;;;;;;;13.70;11.47;;;11.10;1.00;;;;;;5069910;28;20531;-82
2021/10/28 18:51:05;;;;;;;11.67;10.47;;;11.10;1.00;;;;;;5067435;22;20447;-83
2021/10/28 18:53:38;;;;;;;14.50;13.10;;;11.10;1.00;;;;;;5059629;28;20522;-82
2021/10/28 18:56:17;;;;;;;13.57;12.17;;;11.00;1.00;;;;;;5054831;28;20418;-81
2021/10/28 18:59:23;;;;;;;13.50;12.10;;;11.00;1.00;;;;;;5058167;28;20518;-83
2021/10/28 19:02:18;;;;;;;12.40;11.10;;;11.00;1.00;;;;;;5036818;28;20437;-85
2021/10/28 19:05:02;;;;;;;13.90;12.60;;;10.90;1.00;;;;;;5042821;28;20447;-81
2021/10/28 19:07:55;;;;;;;14.07;11.70;;;10.90;1.00;;;;;;5010922;28;20452;-85
2021/10/28 19:10:45;;;;;;;12.50;11.30;;;10.90;1.00;;;;;;5041862;28;20432;-82
2021/10/28 19:13:20;;;;;;;15.73;14.13;;;10.90;1.00;;;;;;5038089;28;20440;-82
2021/10/28 19:15:56;;;;;;;14.93;13.43;;;10.80;1.00;;;;;;5034595;28;20461;-84
2021/10/28 19:18:53;;;;;;;13.53;12.17;;;10.80;1.00;;;;;;5042755;28;20466;-82
2021/10/28 19:21:24;;;;;;;13.93;12.53;;;10.80;1.00;;;;;;5035532;28;20456;-81
2021/10/28 19:24:19;;;;;;;15.63;12.10;;;10.80;1.00;;;;;;5054774;28;20484;-82
2021/10/28 19:27:12;;;;;;;14.33;12.23;;;10.70;1.00;;;;;;5049504;28;21394;-83
2021/10/28 19:40:06;;;;;;;14.13;12.83;;;10.60;1.00;;;;;;5028321;28;20464;-84
2021/10/28 19:48:16;;;;;;;13.47;12.07;;;10.50;1.00;;;;;;5045692;28;20468;-79
2021/10/28 19:50:42;;;;;;;13.17;11.77;;;10.40;1.00;;;;;;5034146;28;20471;-80
2021/10/28 19:53:09;;;;;;;14.50;11.80;;;10.40;1.00;;;;;;5037380;28;20553;-80
2021/10/28 19:55:39;;;;;;;13.63;12.33;;;10.30;1.00;;;;;;5030027;28;20446;-81
2021/10/28 19:58:07;;;;;;;15.83;14.23;;;10.30;1.00;;;;;;5030256;28;20449;-81
2021/10/28 20:00:37;;;;;;;13.67;12.37;;;10.30;1.00;;;;;;5029710;28;20464;-80
2021/10/28 20:03:27;;;;;;;15.10;12.20;;;10.30;1.00;;;;;;5032358;28;20455;-79
2021/10/28 20:06:14;;;;;;;13.40;12.00;;;10.30;1.00;;;;;;5043158;28;20455;-79
2021/10/28 20:14:27;;;;;;;16.27;11.20;;;10.10;1.00;;;;;;5035965;28;20488;-80
2021/10/28 20:22:23;;;;;;;10.80;9.80;;;10.00;1.00;;;;;;5048882;28;21337;-78
2021/10/28 20:24:50;;;;;;;11.40;10.38;;;10.00;1.00;;;;;;5030347;28;20530;-79
2021/10/28 20:27:18;;;;;;;11.90;10.33;;;10.00;1.00;;;;;;5028804;28;20286;-80
2021/10/28 20:29:45;;;;;;;12.63;10.70;;;9.90;1.00;;;;;;5029740;28;20602;-80
2021/10/28 20:32:12;;;;;;;13.73;11.13;;;9.90;1.00;;;;;;5029125;28;21476;-79
2021/10/28 20:34:49;;;;;;;12.75;11.05;;;9.90;1.00;;;;;;5027415;28;20531;-82
2021/10/28 20:37:17;;;;;;;11.77;10.67;;;9.80;1.00;;;;;;5025959;28;20226;-80
2021/10/28 20:39:46;;;;;;;12.00;10.80;;;9.80;1.00;;;;;;5037169;28;20458;-78
2021/10/28 20:42:15;;;;;;;12.50;11.10;;;9.70;1.00;;;;;;5043061;28;21319;-80
2021/10/28 20:44:44;;;;;;;12.23;11.03;;;9.70;1.00;;;;;;5033874;28;20483;-80
2021/10/28 20:47:11;;;;;;;13.90;10.87;;;9.70;1.00;;;;;;5035887;28;20583;-80
2021/10/28 20:49:40;;;;;;;12.20;11.07;;;9.70;1.00;;;;;;5033046;28;20484;-80
2021/10/28 20:52:08;;;;;;;13.17;11.80;;;9.60;1.00;;;;;;5029466;28;21004;-80
2021/10/28 20:54:34;;;;;;;14.13;12.73;;;9.60;1.00;;;;;;5033014;28;20454;-80
2021/10/28 20:57:03;;;;;;;11.53;10.20;;;9.60;1.00;;;;;;5029288;28;20442;-80
2021/10/28 20:59:30;;;;;;;12.00;10.70;;;9.60;1.00;;;;;;5035610;28;21202;-80
2021/10/28 21:02:01;;;;;;;12.82;11.43;;;9.60;1.00;;;;;;5035540;28;20461;-80
2021/10/28 21:04:28;;;;;;;12.23;10.93;;;9.60;1.00;;;;;;5034476;28;20220;-80
2021/10/28 21:06:54;;;;;;;12.93;10.50;;;9.50;1.00;;;;;;5033178;28;20538;-80
2021/10/28 21:09:21;;;;;;;11.80;10.60;;;9.50;1.00;;;;;;5030354;28;20543;-79
2021/10/28 21:11:49;;;;;;;12.93;11.63;;;9.50;1.00;;;;;;5031305;28;20459;-80
2021/10/28 21:14:24;;;;;;;11.68;10.30;;;9.50;1.00;;;;;;5034262;28;20459;-80
2021/10/28 21:16:51;;;;;;;10.60;9.63;;;9.50;1.00;;;;;;5033039;28;20229;-81
2021/10/28 21:19:19;;;;;;;12.53;11.23;;;9.50;1.00;;;;;;5054222;28;20456;-81
2021/10/28 21:21:51;;;;;;;13.17;11.00;;;9.50;1.00;;;;;;5042491;28;20480;-79
2021/10/28 21:24:17;;;;;;;12.77;11.47;;;9.40;1.00;;;;;;5061836;28;20417;-78
2021/10/28 21:26:44;;;;;;;12.50;11.40;;;9.40;1.00;;;;;;5061603;28;21340;-78
2021/10/28 21:29:11;;;;;;;14.20;11.37;;;9.40;1.00;;;;;;5050495;28;20431;-80
2021/10/28 21:31:38;;;;;;;13.63;12.23;;;9.30;1.00;;;;;;5058440;28;20444;-81
2021/10/28 21:34:05;;;;;;;13.63;12.32;;;9.40;1.00;;;;;;5049880;28;20449;-80
2021/10/28 21:36:33;;;;;;;14.77;12.68;;;9.30;1.00;;;;;;5043526;28;20223;-79
2021/10/28 21:39:00;;;;;;;13.90;12.50;;;9.30;1.00;;;;;;5028304;28;20226;-79
2021/10/28 21:41:27;;;;;;;12.88;11.57;;;9.30;1.00;;;;;;5029411;28;21429;-79
2021/10/28 21:43:55;;;;;;;16.77;13.25;;;9.30;1.00;;;;;;5030694;28;20225;-79
2021/10/28 21:46:22;;;;;;;15.80;14.15;;;9.30;1.00;;;;;;5031103;28;20225;-79